Observation data for Tatum on 01/11/2018      Previous  Date  Next       Current Mesonet Observations  Soil Data  Daily Summary Page  Observations in Plain Language
KTAT 110600Z 24018G23KT 06/M01 A2966 RMK A01 T00621005  RH  062%=      5-min Rain = 0
KTAT 110605Z 24018G24KT 06/M01 A2967 RMK A01 T00621006  RH  062%=      5-min Rain = 0
KTAT 110610Z 24016G21KT 06/M01 A2967 RMK A01 T00621006  RH  063%=      5-min Rain = 0
KTAT 110615Z 25015G20KT 06/M01 A2966 RMK A01 T00611006  RH  063%=      5-min Rain = 0
KTAT 110620Z 25016G21KT 06/M01 A2966 RMK A01 T00601006  RH  063%=      5-min Rain = 0
KTAT 110625Z 25015KT 06/M01 A2966 RMK A01 T00601006  RH  063%=      5-min Rain = 0
KTAT 110630Z 25016G22KT 06/M01 A2966 RMK A01 T00611006  RH  062%=      5-min Rain = 0
KTAT 110635Z 25015G20KT 06/M01 A2965 RMK A01 T00631007  RH  062%=      5-min Rain = 0
KTAT 110640Z 25016G22KT 07/M01 A2966 RMK A01 T00651007  RH  061%=      5-min Rain = 0
KTAT 110645Z 25016G21KT 07/M01 A2966 RMK A01 T00671006  RH  060%=      5-min Rain = 0
KTAT 110650Z 25016G24KT 07/M01 A2966 RMK A01 T00691006  RH  060%=      5-min Rain = 0
KTAT 110655Z 25016KT 07/M01 A2966 RMK A01 T00691006  RH  059%=      5-min Rain = 0
KTAT 110700Z 25016KT 07/M01 A2966 RMK A01 T00701006  RH  059%=      5-min Rain = 0
KTAT 110705Z 25014G19KT 07/M01 A2966 RMK A01 T00691007  RH  059%=      5-min Rain = 0
KTAT 110710Z 25014KT 07/M01 A2967 RMK A01 T00691007  RH  059%=      5-min Rain = 0
KTAT 110715Z 25014G20KT 07/M01 A2967 RMK A01 T00691007  RH  059%=      5-min Rain = 0
KTAT 110720Z 25015G20KT 07/M01 A2967 RMK A01 T00701007  RH  058%=      5-min Rain = 0
KTAT 110725Z 25015G20KT 07/M01 A2967 RMK A01 T00721008  RH  057%=      5-min Rain = 0
KTAT 110730Z 25015G20KT 07/M01 A2967 RMK A01 T00721008  RH  057%=      5-min Rain = 0
KTAT 110735Z 25014KT 07/M01 A2967 RMK A01 T00701008  RH  058%=      5-min Rain = 0
KTAT 110740Z 25013KT 07/M01 A2968 RMK A01 T00691008  RH  059%=      5-min Rain = 0
KTAT 110745Z 26012KT 07/M01 A2968 RMK A01 T00671008  RH  059%=      5-min Rain = 0
KTAT 110750Z 25012KT 07/M01 A2968 RMK A01 T00661008  RH  060%=      5-min Rain = 0
KTAT 110755Z 25012KT 06/M01 A2969 RMK A01 T00631008  RH  061%=      5-min Rain = 0
KTAT 110800Z 25010KT 06/M01 A2969 RMK A01 T00601009  RH  062%=      5-min Rain = 0
KTAT 110805Z 25011KT 06/M01 A2969 RMK A01 T00591009  RH  063%=      5-min Rain = 0
KTAT 110810Z 25012KT 06/M01 A2969 RMK A01 T00581008  RH  063%=      5-min Rain = 0
KTAT 110815Z 25011KT 06/M01 A2969 RMK A01 T00561009  RH  064%=      5-min Rain = 0
KTAT 110820Z 25011KT 06/M01 A2969 RMK A01 T00551008  RH  064%=      5-min Rain = 0
KTAT 110825Z 26010KT 05/M01 A297 RMK A01 T00541008  RH  065%=      5-min Rain = 0
KTAT 110830Z 25010KT 05/M01 A297 RMK A01 T00541008  RH  065%=      5-min Rain = 0
KTAT 110835Z 26010KT 05/M01 A297 RMK A01 T00531008  RH  066%=      5-min Rain = 0
KTAT 110840Z 26010KT 05/M01 A2971 RMK A01 T00521008  RH  066%=      5-min Rain = 0
KTAT 110845Z 26010KT 05/M01 A2971 RMK A01 T00521007  RH  066%=      5-min Rain = 0
KTAT 110850Z 26010KT 05/M01 A2971 RMK A01 T00521007  RH  066%=      5-min Rain = 0
KTAT 110855Z 27010KT 05/M01 A2971 RMK A01 T00521007  RH  066%=      5-min Rain = 0
KTAT 110900Z 27012G17KT 05/M01 A2971 RMK A01 T00541006  RH  066%=      5-min Rain = 0
KTAT 110905Z 27013G18KT 06/M01 A2971 RMK A01 T00601005  RH  064%=      5-min Rain = 0
KTAT 110910Z 27013KT 06/M01 A2972 RMK A01 T00621005  RH  063%=      5-min Rain = 0
KTAT 110915Z 27015KT 06/M01 A2972 RMK A01 T00631005  RH  062%=      5-min Rain = 0
KTAT 110920Z 28014G19KT 07/M00 A2972 RMK A01 T00671003  RH  062%=      5-min Rain = 0
KTAT 110925Z 28014G19KT 07/M00 A2972 RMK A01 T00681003  RH  061%=      5-min Rain = 0
KTAT 110930Z 28014G19KT 07/M00 A2973 RMK A01 T00711002  RH  060%=      5-min Rain = 0
KTAT 110935Z 28013KT 07/M00 A2973 RMK A01 T00721001  RH  061%=      5-min Rain = 0
KTAT 110940Z 29013G19KT 08/00 A2974 RMK A01 T00750002  RH  061%=      5-min Rain = 0
KTAT 110945Z 29016G23KT 08/01 A2974 RMK A01 T00800006  RH  060%=      5-min Rain = 0
KTAT 110950Z 29015KT 08/01 A2974 RMK A01 T00820007  RH  060%=      5-min Rain = 0
KTAT 110955Z 29017G25KT 08/01 A2974 RMK A01 T00840008  RH  060%=      5-min Rain = 0
KTAT 111000Z 29019G24KT 09/01 A2974 RMK A01 T00850009  RH  059%=      5-min Rain = 0
KTAT 111005Z 30019KT 09/01 A2975 RMK A01 T00860010  RH  059%=      5-min Rain = 0
KTAT 111010Z 30017G24KT 09/01 A2975 RMK A01 T00880009  RH  059%=      5-min Rain = 0
KTAT 111015Z 30017KT 09/01 A2976 RMK A01 T00870010  RH  059%=      5-min Rain = 0
KTAT 111020Z 31015G22KT 09/01 A2976 RMK A01 T00860010  RH  060%=      5-min Rain = 0
KTAT 111025Z 32014G20KT 09/01 A2976 RMK A01 T00850011  RH  060%=      5-min Rain = 0
KTAT 111030Z 31014KT 08/01 A2977 RMK A01 T00840013  RH  062%=      5-min Rain = 0
KTAT 111035Z 31013KT 08/02 A2977 RMK A01 T00820015  RH  063%=      5-min Rain = 0
KTAT 111040Z 32013G19KT 08/02 A2978 RMK A01 T00800019  RH  066%=      5-min Rain = 0
KTAT 111045Z 32013G18KT 08/02 A2979 RMK A01 T00770022  RH  069%=      5-min Rain = 0
KTAT 111050Z 33014G20KT 07/03 A2979 RMK A01 T00740026  RH  072%=      5-min Rain = 0
KTAT 111055Z 34012KT 07/03 A298 RMK A01 T00720027  RH  074%=      5-min Rain = 0
KTAT 111100Z 34011KT 07/03 A2981 RMK A01 T00700029  RH  076%=      5-min Rain = 0
KTAT 111105Z 35012KT 07/03 A2981 RMK A01 T00680031  RH  078%=      5-min Rain = 0
KTAT 111110Z 36010KT 07/03 A2982 RMK A01 T00650033  RH  081%=      5-min Rain = 0
KTAT 111115Z 00011G19KT 06/03 A2982 RMK A01 T00640033  RH  082%=      5-min Rain = 0
KTAT 111120Z 36012KT 06/03 A2982 RMK A01 T00630032  RH  082%=      5-min Rain = 0
KTAT 111125Z 00014G19KT 06/03 A2982 RMK A01 T00630030  RH  080%=      5-min Rain = 0
KTAT 111130Z 01019G24KT 06/02 A2983 RMK A01 T00630024  RH  077%=      5-min Rain = 0
KTAT 111135Z 01017G22KT 06/02 A2983 RMK A01 T00620022  RH  077%=      5-min Rain = 0
KTAT 111140Z 00016G22KT 06/02 A2984 RMK A01 T00610021  RH  077%=      5-min Rain = 0
KTAT 111145Z 00019G26KT 06/02 A2984 RMK A01 T00610018  RH  075%=      5-min Rain = 0
KTAT 111150Z 00020G27KT 06/01 A2985 RMK A01 T00590014  RH  074%=      5-min Rain = 0
KTAT 111155Z 00021G27KT 06/01 A2985 RMK A01 T00580012  RH  073%=      5-min Rain = 0
KTAT 111200Z 36019G28KT 06/01 A2986 RMK A01 T00560011  RH  073%=      5-min Rain = 0
KTAT 111205Z 00022G27KT 06/01 A2987 RMK A01 T00550006  RH  071%=      5-min Rain = 0
KTAT 111210Z 00020G25KT 06/00 A2987 RMK A01 T00560004  RH  070%=      5-min Rain = 0
KTAT 111215Z 35022G37KT 05/01 A2988 RMK A01 T00530007  RH  073%=      5-min Rain = 0
KTAT 111220Z 36024G34KT 05/00 A2988 RMK A01 T005000-0  RH  071%=      5-min Rain = 0
KTAT 111225Z 35021G30KT 05/00 A2989 RMK A01 T00480001  RH  072%=      5-min Rain = 0
KTAT 111230Z 35025G37KT 04/00 A299 RMK A01 T00440002  RH  075%=      5-min Rain = 0
KTAT 111235Z 36023G31KT 04/01 A299 RMK A01 T00370005  RH  080%=      5-min Rain = 0
KTAT 111240Z 36022G29KT 03/01 A299 RMK A01 T00340006  RH  083%=      5-min Rain = 0
KTAT 111245Z 36023G32KT 03/01 A2991 RMK A01 T00320006  RH  084%=      5-min Rain = 0
KTAT 111250Z 36021G29KT 03/01 A2991 RMK A01 T00310005  RH  084%=      5-min Rain = 0
KTAT 111255Z 36021G29KT 03/00 A2991 RMK A01 T00320003  RH  082%=      5-min Rain = 0
KTAT 111300Z 36017G23KT 03/00 A2992 RMK A01 T00320003  RH  082%=      5-min Rain = 0
KTAT 111305Z 35015G20KT 03/00 A2992 RMK A01 T00310003  RH  083%=      5-min Rain = 0
KTAT 111310Z 35014G20KT 03/00 A2993 RMK A01 T00310004  RH  083%=      5-min Rain = 0
KTAT 111315Z 35015G21KT 03/00 A2993 RMK A01 T00310004  RH  083%=      5-min Rain = 0
KTAT 111320Z 35015G20KT 03/00 A2993 RMK A01 T00310003  RH  083%=      5-min Rain = 0
KTAT 111325Z 36014KT 03/00 A2994 RMK A01 T00310003  RH  083%=      5-min Rain = 0
KTAT 111330Z 35012KT 03/00 A2994 RMK A01 T00310004  RH  083%=      5-min Rain = 0
KTAT 111335Z 35010KT 03/00 A2994 RMK A01 T00310004  RH  084%=      5-min Rain = 0
KTAT 111340Z 34010KT 03/01 A2994 RMK A01 T00310005  RH  084%=      5-min Rain = 0
KTAT 111345Z 34010KT 03/01 A2995 RMK A01 T00320005  RH  084%=      5-min Rain = 0
KTAT 111350Z 34011KT 03/01 A2995 RMK A01 T00330006  RH  084%=      5-min Rain = 0
KTAT 111355Z 34012KT 03/01 A2996 RMK A01 T00340006  RH  083%=      5-min Rain = 0
KTAT 111400Z 34013KT 04/01 A2996 RMK A01 T00360005  RH  081%=      5-min Rain = 0
KTAT 111405Z 34013KT 04/01 A2997 RMK A01 T00360006  RH  081%=      5-min Rain = 0
KTAT 111410Z 33011KT 04/01 A2997 RMK A01 T00370006  RH  081%=      5-min Rain = 0
KTAT 111415Z 33012KT 04/01 A2998 RMK A01 T00370006  RH  081%=      5-min Rain = 0
KTAT 111420Z 33011KT 04/01 A2999 RMK A01 T00380007  RH  081%=      5-min Rain = 0
KTAT 111425Z 33012KT 04/01 A2999 RMK A01 T00380008  RH  082%=      5-min Rain = 0
KTAT 111430Z 33016KT 04/01 A30 RMK A01 T00380007  RH  081%=      5-min Rain = 0
KTAT 111435Z 34016G23KT 04/00 A3001 RMK A01 T00380003  RH  079%=      5-min Rain = 0
KTAT 111440Z 34016G23KT 04/M00 A3001 RMK A01 T00381002  RH  077%=      5-min Rain = 0
KTAT 111445Z 34020KT 04/M01 A3002 RMK A01 T00371009  RH  072%=      5-min Rain = 0
KTAT 111450Z 34018G24KT 04/M01 A3003 RMK A01 T00371013  RH  071%=      5-min Rain = 0
KTAT 111455Z 35019KT 04/M02 A3003 RMK A01 T00361020  RH  068%=      5-min Rain = 0
KTAT 111500Z 35018G25KT 04/M02 A3004 RMK A01 T00351022  RH  067%=      5-min Rain = 0
KTAT 111505Z 35016KT 03/M02 A3005 RMK A01 T00341022  RH  067%=      5-min Rain = 0
KTAT 111510Z 35016G22KT 03/M03 A3005 RMK A01 T00331025  RH  067%=      5-min Rain = 0
KTAT 111515Z 35017G23KT 03/M03 A3006 RMK A01 T00321031  RH  064%=      5-min Rain = 0
KTAT 111520Z 35020KT 03/M04 A3006 RMK A01 T00311042  RH  059%=      5-min Rain = 0
KTAT 111525Z 36019G25KT 03/M05 A3007 RMK A01 T00331047  RH  056%=      5-min Rain = 0
KTAT 111530Z 00018KT 03/M05 A3007 RMK A01 T00341049  RH  055%=      5-min Rain = 0
KTAT 111535Z 36017KT 04/M05 A3008 RMK A01 T00351049  RH  055%=      5-min Rain = 0
KTAT 111540Z 35016G22KT 03/M05 A3008 RMK A01 T00341045  RH  057%=      5-min Rain = 0
KTAT 111545Z 35017G22KT 04/M05 A3009 RMK A01 T00351045  RH  056%=      5-min Rain = 0
KTAT 111550Z 35018G24KT 04/M05 A3009 RMK A01 T00411046  RH  054%=      5-min Rain = 0
KTAT 111555Z 35020G25KT 04/M05 A3009 RMK A01 T00381053  RH  052%=      5-min Rain = 0
KTAT 111600Z 36017G22KT 04/M05 A301 RMK A01 T00361051  RH  053%=      5-min Rain = 0
KTAT 111605Z 36018G24KT 04/M05 A301 RMK A01 T00431051  RH  051%=      5-min Rain = 0
KTAT 111610Z 35018G24KT 05/M06 A3011 RMK A01 T00471055  RH  048%=      5-min Rain = 0
KTAT 111615Z 35019G25KT 04/M06 A3011 RMK A01 T00431061  RH  047%=      5-min Rain = 0
KTAT 111620Z 36018KT 05/M06 A3012 RMK A01 T00471058  RH  047%=      5-min Rain = 0
KTAT 111625Z 35017G23KT 05/M06 A3012 RMK A01 T00541060  RH  044%=      5-min Rain = 0
KTAT 111630Z 36019G26KT 06/M07 A3013 RMK A01 T00561068  RH  041%=      5-min Rain = 0
KTAT 111635Z 36022KT 06/M07 A3015 RMK A01 T00571070  RH  040%=      5-min Rain = 0
KTAT 111640Z 35019G25KT 05/M07 A3015 RMK A01 T00521072  RH  041%=      5-min Rain = 0
KTAT 111645Z 36017G23KT 05/M07 A3015 RMK A01 T00541065  RH  042%=      5-min Rain = 0
KTAT 111650Z 35015G20KT 05/M06 A3016 RMK A01 T00531063  RH  043%=      5-min Rain = 0
KTAT 111655Z 35017G25KT 05/M07 A3016 RMK A01 T00501069  RH  043%=      5-min Rain = 0
KTAT 111700Z 35019G26KT 05/M07 A3016 RMK A01 T00491072  RH  042%=      5-min Rain = 0
KTAT 111705Z 35021G28KT 05/M08 A3017 RMK A01 T00541079  RH  038%=      5-min Rain = 0
KTAT 111710Z 35020G28KT 06/M08 A3017 RMK A01 T00551084  RH  037%=      5-min Rain = 0
KTAT 111715Z 35022G27KT 05/M09 A3018 RMK A01 T00511090  RH  036%=      5-min Rain = 0
KTAT 111720Z 00018G24KT 05/M09 A3018 RMK A01 T00541087  RH  036%=      5-min Rain = 0
KTAT 111725Z 35018G24KT 05/M09 A3018 RMK A01 T00531085  RH  037%=      5-min Rain = 0
KTAT 111730Z 35018G24KT 06/M08 A3019 RMK A01 T00601084  RH  035%=      5-min Rain = 0
KTAT 111735Z 35019G25KT 07/M08 A3019 RMK A01 T00671083  RH  034%=      5-min Rain = 0
KTAT 111740Z 35016G22KT 07/M08 A3019 RMK A01 T00651084  RH  034%=      5-min Rain = 0
KTAT 111745Z 35019G24KT 06/M09 A3019 RMK A01 T00621086  RH  034%=      5-min Rain = 0
KTAT 111750Z 35017G23KT 07/M08 A3019 RMK A01 T00661083  RH  034%=      5-min Rain = 0
KTAT 111755Z 35021G26KT 07/M09 A3019 RMK A01 T00671093  RH  031%=      5-min Rain = 0
KTAT 111800Z 36018G24KT 07/M09 A3019 RMK A01 T00681092  RH  031%=      5-min Rain = 0
KTAT 111805Z 35017KT 07/M09 A3019 RMK A01 T00671087  RH  033%=      5-min Rain = 0
KTAT 111810Z 35018G23KT 07/M09 A3019 RMK A01 T00651089  RH  033%=      5-min Rain = 0
KTAT 111815Z 35017G24KT 07/M09 A3019 RMK A01 T00661093  RH  032%=      5-min Rain = 0
KTAT 111820Z 36016G21KT 07/M09 A3019 RMK A01 T00721091  RH  031%=      5-min Rain = 0
KTAT 111825Z 00016G21KT 08/M09 A3019 RMK A01 T00751093  RH  030%=      5-min Rain = 0
KTAT 111830Z 00017G23KT 08/M10 A3019 RMK A01 T00781096  RH  028%=      5-min Rain = 0
KTAT 111835Z 01019G24KT 08/M10 A3018 RMK A01 T00781100  RH  028%=      5-min Rain = 0
KTAT 111840Z 35016G21KT 07/M09 A3019 RMK A01 T00711092  RH  031%=      5-min Rain = 0
KTAT 111845Z 35015G21KT 08/M09 A3018 RMK A01 T00771087  RH  031%=      5-min Rain = 0
KTAT 111850Z 35017G24KT 08/M09 A3019 RMK A01 T00811090  RH  029%=      5-min Rain = 0
KTAT 111855Z 35017G23KT 08/M09 A3019 RMK A01 T00811091  RH  029%=      5-min Rain = 0
KTAT 111900Z 35019G26KT 08/M09 A3019 RMK A01 T00841093  RH  028%=      5-min Rain = 0
KTAT 111905Z 35015G21KT 08/M10 A3019 RMK A01 T00781095  RH  028%=      5-min Rain = 0
KTAT 111910Z 35017G22KT 08/M10 A3019 RMK A01 T00771097  RH  028%=      5-min Rain = 0
KTAT 111915Z 35017G23KT 08/M10 A3019 RMK A01 T00811097  RH  028%=      5-min Rain = 0
KTAT 111920Z 35015G23KT 09/M10 A3019 RMK A01 T00891095  RH  027%=      5-min Rain = 0
KTAT 111925Z 35016G23KT 09/M10 A3019 RMK A01 T00931095  RH  026%=      5-min Rain = 0
KTAT 111930Z 36015G23KT 10/M10 A3019 RMK A01 T00991096  RH  025%=      5-min Rain = 0
KTAT 111935Z 35016KT 10/M10 A3019 RMK A01 T00981097  RH  024%=      5-min Rain = 0
KTAT 111940Z 35015G24KT 09/M10 A3019 RMK A01 T00941096  RH  026%=      5-min Rain = 0
KTAT 111945Z 36015KT 09/M10 A3019 RMK A01 T00881098  RH  026%=      5-min Rain = 0
KTAT 111950Z 34016G21KT 09/M10 A3019 RMK A01 T00861096  RH  027%=      5-min Rain = 0
KTAT 111955Z 35013G20KT 09/M10 A3019 RMK A01 T00861095  RH  027%=      5-min Rain = 0
KTAT 112000Z 36016G21KT 09/M10 A3019 RMK A01 T00861098  RH  026%=      5-min Rain = 0
KTAT 112005Z 35016G21KT 08/M10 A3019 RMK A01 T00841100  RH  026%=      5-min Rain = 0
KTAT 112010Z 35015G25KT 09/M10 A3019 RMK A01 T00861098  RH  027%=      5-min Rain = 0
KTAT 112015Z 36014G25KT 09/M10 A302 RMK A01 T00871098  RH  026%=      5-min Rain = 0
KTAT 112020Z 35013G19KT 09/M10 A3019 RMK A01 T00851097  RH  027%=      5-min Rain = 0
KTAT 112025Z 34016KT 09/M10 A3019 RMK A01 T00861097  RH  027%=      5-min Rain = 0
KTAT 112030Z 34011G17KT 09/M09 A3019 RMK A01 T00941093  RH  026%=      5-min Rain = 0
KTAT 112035Z 34015KT 10/M10 A3019 RMK A01 T00971098  RH  025%=      5-min Rain = 0
KTAT 112040Z 35016KT 09/M10 A3019 RMK A01 T00941099  RH  025%=      5-min Rain = 0
KTAT 112045Z 00014KT 09/M10 A3019 RMK A01 T00931099  RH  025%=      5-min Rain = 0
KTAT 112050Z 35013G20KT 10/M10 A302 RMK A01 T00981097  RH  025%=      5-min Rain = 0
KTAT 112055Z 36013G18KT 10/M10 A302 RMK A01 T00971098  RH  024%=      5-min Rain = 0
KTAT 112100Z 35013KT 09/M10 A302 RMK A01 T00921098  RH  025%=      5-min Rain = 0
KTAT 112105Z 35010G17KT 09/M10 A302 RMK A01 T00871097  RH  026%=      5-min Rain = 0
KTAT 112110Z 35014KT 09/M10 A302 RMK A01 T00921097  RH  026%=      5-min Rain = 0
KTAT 112115Z 36011G17KT 09/M10 A3021 RMK A01 T00901098  RH  026%=      5-min Rain = 0
KTAT 112120Z 35011G16KT 09/M10 A3021 RMK A01 T00921095  RH  026%=      5-min Rain = 0
KTAT 112125Z 01012G18KT 10/M10 A3021 RMK A01 T00961095  RH  025%=      5-min Rain = 0
KTAT 112130Z 36011KT 11/M09 A3021 RMK A01 T01061094  RH  024%=      5-min Rain = 0
KTAT 112135Z 33014KT 10/M10 A3021 RMK A01 T01021096  RH  024%=      5-min Rain = 0
KTAT 112140Z 34013G18KT 09/M10 A3021 RMK A01 T00891098  RH  026%=      5-min Rain = 0
KTAT 112145Z 32012KT 09/M10 A3021 RMK A01 T00921095  RH  026%=      5-min Rain = 0
KTAT 112150Z 34013KT 10/M10 A3021 RMK A01 T01031095  RH  024%=      5-min Rain = 0
KTAT 112155Z 34012G17KT 10/M10 A3021 RMK A01 T01011095  RH  024%=      5-min Rain = 0
KTAT 112200Z 35013G19KT 10/M10 A3021 RMK A01 T00991096  RH  025%=      5-min Rain = 0
KTAT 112205Z 34010KT 09/M10 A3022 RMK A01 T00911099  RH  025%=      5-min Rain = 0
KTAT 112210Z 34008KT 09/M10 A3022 RMK A01 T00871100  RH  026%=      5-min Rain = 0
KTAT 112215Z 35007KT 09/M10 A3022 RMK A01 T00871098  RH  026%=      5-min Rain = 0
KTAT 112220Z 36009G15KT 09/M10 A3022 RMK A01 T00931096  RH  026%=      5-min Rain = 0
KTAT 112225Z 35012KT 10/M09 A3022 RMK A01 T01011092  RH  025%=      5-min Rain = 0
KTAT 112230Z 35010KT 10/M09 A3022 RMK A01 T01011091  RH  025%=      5-min Rain = 0
KTAT 112235Z 35009G14KT 10/M09 A3022 RMK A01 T00971093  RH  026%=      5-min Rain = 0
KTAT 112240Z 35006KT 10/M09 A3022 RMK A01 T00971094  RH  025%=      5-min Rain = 0
KTAT 112245Z 00007KT 09/M10 A3022 RMK A01 T00891096  RH  026%=      5-min Rain = 0
KTAT 112250Z 01005KT 09/M10 A3022 RMK A01 T00901096  RH  026%=      5-min Rain = 0
KTAT 112255Z 01005G10KT 09/M10 A3022 RMK A01 T00921095  RH  026%=      5-min Rain = 0
KTAT 112300Z 02009KT 09/M09 A3022 RMK A01 T00911093  RH  026%=      5-min Rain = 0
KTAT 112305Z 35007KT 09/M09 A3022 RMK A01 T00901092  RH  027%=      5-min Rain = 0
KTAT 112310Z 36007KT 09/M09 A3022 RMK A01 T00891092  RH  027%=      5-min Rain = 0
KTAT 112315Z 36005KT 09/M09 A3022 RMK A01 T00881093  RH  027%=      5-min Rain = 0
KTAT 112320Z 34004KT 09/M09 A3023 RMK A01 T00881091  RH  027%=      5-min Rain = 0
KTAT 112325Z 35005G10KT 09/M09 A3023 RMK A01 T00891090  RH  028%=      5-min Rain = 0
KTAT 112330Z 00007KT 08/M09 A3023 RMK A01 T00831090  RH  029%=      5-min Rain = 0
KTAT 112335Z 00007KT 08/M09 A3023 RMK A01 T00801092  RH  029%=      5-min Rain = 0
KTAT 112340Z 00007KT 08/M09 A3023 RMK A01 T00771093  RH  029%=      5-min Rain = 0
KTAT 112345Z 01006KT 07/M09 A3023 RMK A01 T00731094  RH  030%=      5-min Rain = 0
KTAT 112350Z 02005KT 07/M10 A3023 RMK A01 T00671096  RH  031%=      5-min Rain = 0
KTAT 112355Z 01004KT 06/M10 A3023 RMK A01 T00611096  RH  032%=      5-min Rain = 0
KTAT 120000Z 02005KT 06/M10 A3023 RMK A01 T00601097  RH  032%=      5-min Rain = 0
KTAT 120005Z 02003KT 06/M10 A3024 RMK A01 T00561099  RH  032%=      5-min Rain = 0
KTAT 120010Z 02004KT 05/M10 A3024 RMK A01 T00531099  RH  033%=      5-min Rain = 0
KTAT 120015Z 03003KT 05/M10 A3024 RMK A01 T00471102  RH  033%=      5-min Rain = 0
KTAT 120020Z 02003KT 04/M10 A3024 RMK A01 T00421102  RH  035%=      5-min Rain = 0
KTAT 120025Z 36003KT 04/M10 A3024 RMK A01 T00391099  RH  036%=      5-min Rain = 0
KTAT 120030Z 36003KT 04/M10 A3025 RMK A01 T00401098  RH  036%=      5-min Rain = 0
KTAT 120035Z 35002KT 04/M10 A3025 RMK A01 T00361101  RH  036%=      5-min Rain = 0
KTAT 120040Z 34002KT 02/M10 A3025 RMK A01 T00191100  RH  042%=      5-min Rain = 0
KTAT 120045Z 32001KT 01/M10 A3025 RMK A01 T00131098  RH  044%=      5-min Rain = 0
KTAT 120050Z 30001KT 01/M10 A3025 RMK A01 T00091098  RH  045%=      5-min Rain = 0
KTAT 120055Z 32001KT 01/M10 A3025 RMK A01 T00051098  RH  047%=      5-min Rain = 0
KTAT 120100Z 31002KT 00/M10 A3025 RMK A01 T00031098  RH  047%=      5-min Rain = 0
KTAT 120105Z 31001KT 00/10 A3025 RMK A01 T00-00-98  RH  048%=      5-min Rain = 0
KTAT 120110Z 32001KT M00/M10 A3025 RMK A01 T10041102  RH  048%=      5-min Rain = 0
KTAT 120115Z 30000KT M01/M11 A3026 RMK A01 T10101105  RH  049%=      5-min Rain = 0
KTAT 120120Z 23002KT M02/M10 A3026 RMK A01 T10211104  RH  054%=      5-min Rain = 0
KTAT 120125Z 23002KT M02/M10 A3026 RMK A01 T10231099  RH  056%=      5-min Rain = 0
KTAT 120130Z 24003KT M02/M10 A3026 RMK A01 T10211099  RH  056%=      5-min Rain = 0
KTAT 120135Z 24004KT M03/M10 A3026 RMK A01 T10251099  RH  057%=      5-min Rain = 0
KTAT 120140Z 24003KT M02/M10 A3026 RMK A01 T10241097  RH  058%=      5-min Rain = 0
KTAT 120145Z 25003KT M02/M10 A3026 RMK A01 T10211096  RH  057%=      5-min Rain = 0
KTAT 120150Z 26002KT M02/M10 A3026 RMK A01 T10211099  RH  056%=      5-min Rain = 0
KTAT 120155Z 26002KT M02/M10 A3026 RMK A01 T10221099  RH  057%=      5-min Rain = 0
KTAT 120200Z 25003KT M02/M10 A3026 RMK A01 T10221099  RH  056%=      5-min Rain = 0
KTAT 120205Z 24002KT M03/M10 A3026 RMK A01 T10261101  RH  057%=      5-min Rain = 0
KTAT 120210Z 24003KT M03/M10 A3026 RMK A01 T10271102  RH  057%=      5-min Rain = 0
KTAT 120215Z 24003KT M03/M10 A3026 RMK A01 T10311104  RH  058%=      5-min Rain = 0
KTAT 120220Z 24003KT M03/M11 A3026 RMK A01 T10341105  RH  059%=      5-min Rain = 0
KTAT 120225Z 25003KT M04/M11 A3026 RMK A01 T10381108  RH  059%=      5-min Rain = 0
KTAT 120230Z 25003KT M04/M11 A3026 RMK A01 T10421108  RH  061%=      5-min Rain = 0
KTAT 120235Z 25002KT M04/M11 A3026 RMK A01 T10421107  RH  061%=      5-min Rain = 0
KTAT 120240Z 25002KT M04/M11 A3026 RMK A01 T10441108  RH  062%=      5-min Rain = 0
KTAT 120245Z 25002KT M05/M11 A3026 RMK A01 T10471109  RH  063%=      5-min Rain = 0
KTAT 120250Z 25001KT M05/M11 A3026 RMK A01 T10471106  RH  064%=      5-min Rain = 0
KTAT 120255Z 20000KT M05/M11 A3026 RMK A01 T10461105  RH  064%=      5-min Rain = 0
KTAT 120300Z 00000KT M05/M11 A3026 RMK A01 T10461105  RH  064%=      5-min Rain = 0
KTAT 120305Z 00000KT M05/M11 A3026 RMK A01 T10461105  RH  064%=      5-min Rain = 0
KTAT 120310Z 31001KT M05/M11 A3026 RMK A01 T10491106  RH  065%=      5-min Rain = 0
KTAT 120315Z 00000KT M05/M11 A3026 RMK A01 T10511106  RH  066%=      5-min Rain = 0
KTAT 120320Z 00000KT M05/M11 A3026 RMK A01 T10521105  RH  067%=      5-min Rain = 0
KTAT 120325Z 00000KT M05/M11 A3026 RMK A01 T10511105  RH  067%=      5-min Rain = 0
KTAT 120330Z 00000KT M05/M11 A3026 RMK A01 T10511106  RH  066%=      5-min Rain = 0
KTAT 120335Z 29000KT M05/M11 A3026 RMK A01 T10521107  RH  066%=      5-min Rain = 0
KTAT 120340Z 26001KT M06/M11 A3026 RMK A01 T10571110  RH  067%=      5-min Rain = 0
KTAT 120345Z 26001KT M06/M11 A3026 RMK A01 T10591110  RH  068%=      5-min Rain = 0
KTAT 120350Z 26002KT M06/M11 A3026 RMK A01 T10621112  RH  069%=      5-min Rain = 0
KTAT 120355Z 26002KT M06/M11 A3026 RMK A01 T10621110  RH  070%=      5-min Rain = 0
KTAT 120400Z 25002KT M06/M11 A3026 RMK A01 T10621108  RH  071%=      5-min Rain = 0
KTAT 120405Z 25002KT M06/M11 A3026 RMK A01 T10591106  RH  071%=      5-min Rain = 0
KTAT 120410Z 25003KT M06/M11 A3027 RMK A01 T10611109  RH  070%=      5-min Rain = 0
KTAT 120415Z 23002KT M06/M11 A3026 RMK A01 T10601105  RH  071%=      5-min Rain = 0
KTAT 120420Z 23001KT M06/M11 A3026 RMK A01 T10581105  RH  070%=      5-min Rain = 0
KTAT 120425Z 23001KT M06/M11 A3027 RMK A01 T10581108  RH  069%=      5-min Rain = 0
KTAT 120430Z 22002KT M06/M11 A3027 RMK A01 T10601107  RH  070%=      5-min Rain = 0
KTAT 120435Z 22001KT M06/M11 A3027 RMK A01 T10611108  RH  070%=      5-min Rain = 0
KTAT 120440Z 22001KT M06/M11 A3027 RMK A01 T10621109  RH  070%=      5-min Rain = 0
KTAT 120445Z 22000KT M06/M11 A3027 RMK A01 T10641110  RH  071%=      5-min Rain = 0
KTAT 120450Z 22001KT M07/M11 A3027 RMK A01 T10661111  RH  071%=      5-min Rain = 0
KTAT 120455Z 22002KT M07/M11 A3027 RMK A01 T10661110  RH  072%=      5-min Rain = 0
KTAT 120500Z 22002KT M07/M11 A3027 RMK A01 T10661108  RH  073%=      5-min Rain = 0
KTAT 120505Z 20002KT M07/M11 A3027 RMK A01 T10671109  RH  073%=      5-min Rain = 0
KTAT 120510Z 19002KT M07/M11 A3027 RMK A01 T10671109  RH  073%=      5-min Rain = 0
KTAT 120515Z 20003KT M07/M11 A3027 RMK A01 T10661109  RH  073%=      5-min Rain = 0
KTAT 120520Z 19003KT M07/M11 A3027 RMK A01 T10671110  RH  072%=      5-min Rain = 0
KTAT 120525Z 19003KT M07/M11 A3027 RMK A01 T10681111  RH  072%=      5-min Rain = 0
KTAT 120530Z 19004KT M07/M11 A3027 RMK A01 T10701112  RH  073%=      5-min Rain = 0
KTAT 120535Z 19004KT M07/M11 A3027 RMK A01 T10711113  RH  073%=      5-min Rain = 0
KTAT 120540Z 20005KT M07/M11 A3027 RMK A01 T10741114  RH  074%=      5-min Rain = 0
KTAT 120545Z 19005KT M08/M11 A3027 RMK A01 T10751112  RH  075%=      5-min Rain = 0
KTAT 120550Z 19005KT M07/M11 A3027 RMK A01 T10721110  RH  076%=      5-min Rain = 0
KTAT 120555Z 18006KT M07/M11 A3027 RMK A01 T10721111  RH  074%=      5-min Rain = 0

Page generated in 0.0107 seconds.